createdAt,value
2023-05-09T00:02:22.311Z,10.49
2023-05-09T00:04:48.925Z,10.48
2023-05-09T00:07:15.618Z,10.57
2023-05-09T00:09:42.120Z,10.48
2023-05-09T00:12:09.092Z,10.56
2023-05-09T00:14:35.679Z,10.56
2023-05-09T00:17:02.147Z,10.65
2023-05-09T00:19:28.603Z,10.65
2023-05-09T00:21:55.074Z,10.53
2023-05-09T00:24:21.637Z,10.48
2023-05-09T00:26:48.119Z,10.56
2023-05-09T00:29:14.596Z,10.55
2023-05-09T00:31:41.136Z,10.54
2023-05-09T00:34:07.623Z,10.62
2023-05-09T00:36:34.112Z,10.67
2023-05-09T00:39:00.740Z,10.67
2023-05-09T00:41:27.184Z,10.68
2023-05-09T00:43:53.666Z,10.55
2023-05-09T00:46:20.266Z,10.62
2023-05-09T00:48:46.927Z,10.51
2023-05-09T00:51:13.426Z,10.45
2023-05-09T00:53:39.965Z,10.61
2023-05-09T00:56:06.878Z,10.64
2023-05-09T00:58:33.330Z,10.53
2023-05-09T01:01:01.850Z,10.62
2023-05-09T01:03:28.585Z,10.53
2023-05-09T01:05:57.957Z,10.63
2023-05-09T01:08:43.222Z,10.68
2023-05-09T01:11:12.967Z,10.67
2023-05-09T01:14:01.016Z,10.59
2023-05-09T01:16:54.088Z,10.46
2023-05-09T01:19:59.368Z,10.39
2023-05-09T01:22:30.323Z,10.43
2023-05-09T01:25:15.324Z,10.38
2023-05-09T01:28:12.831Z,10.45
2023-05-09T01:30:39.368Z,10.59
2023-05-09T01:33:07.019Z,10.65
2023-05-09T01:35:33.521Z,10.61
2023-05-09T01:38:00.058Z,10.65
2023-05-09T01:40:26.680Z,10.65
2023-05-09T01:43:02.614Z,10.54
2023-05-09T01:45:29.138Z,10.50
2023-05-09T01:47:56.231Z,10.25
2023-05-09T01:50:22.802Z,10.23
2023-05-09T01:52:49.849Z,10.15
2023-05-09T01:55:16.825Z,10.32
2023-05-09T01:57:44.046Z,10.35
2023-05-09T02:00:12.899Z,10.43
2023-05-09T02:02:39.626Z,10.48
2023-05-09T02:05:06.691Z,10.51
2023-05-09T02:07:33.177Z,10.24
2023-05-09T02:09:59.611Z,10.28
2023-05-09T02:12:26.281Z,10.14
2023-05-09T02:14:52.759Z,10.17
2023-05-09T02:17:19.357Z,9.86
2023-05-09T02:19:45.988Z,10.02
2023-05-09T02:22:12.645Z,10.04
2023-05-09T02:24:39.109Z,9.97
2023-05-09T02:27:07.144Z,10.13
2023-05-09T02:29:40.587Z,10.05
2023-05-09T02:32:09.602Z,10.08
2023-05-09T02:34:37.396Z,10.10
2023-05-09T02:37:03.995Z,10.13
2023-05-09T02:39:30.942Z,10.14
2023-05-09T02:41:57.410Z,9.99
2023-05-09T02:44:23.875Z,9.87
2023-05-09T02:46:50.403Z,9.87
2023-05-09T02:49:30.943Z,9.90
2023-05-09T02:51:58.787Z,9.81
2023-05-09T02:54:25.240Z,9.91
2023-05-09T02:56:51.722Z,10.03
2023-05-09T02:59:18.585Z,10.10
2023-05-09T03:01:45.074Z,10.10
2023-05-09T03:04:11.644Z,10.03
2023-05-09T03:06:38.411Z,10.01
2023-05-09T03:09:04.899Z,9.79
2023-05-09T03:11:31.493Z,9.82
2023-05-09T03:13:58.123Z,9.95
2023-05-09T03:16:24.653Z,9.94
2023-05-09T03:18:51.205Z,9.89
2023-05-09T03:21:17.774Z,9.71
2023-05-09T03:23:44.594Z,9.91
2023-05-09T03:26:11.032Z,9.82
2023-05-09T03:28:38.414Z,9.89
2023-05-09T03:31:05.423Z,10.00
2023-05-09T03:33:31.926Z,9.75
2023-05-09T03:35:58.390Z,9.83
2023-05-09T03:38:24.823Z,9.70
2023-05-09T03:40:51.343Z,9.61
2023-05-09T03:43:17.800Z,9.59
2023-05-09T03:45:44.248Z,9.54
2023-05-09T03:48:11.350Z,9.59
2023-05-09T03:50:37.903Z,9.74
2023-05-09T03:53:04.416Z,9.75
2023-05-09T03:55:30.900Z,9.78
2023-05-09T03:57:57.656Z,9.80
2023-05-09T04:00:26.364Z,9.69
2023-05-09T04:02:53.100Z,9.81
2023-05-09T04:05:19.697Z,9.83
2023-05-09T04:07:46.295Z,9.99
2023-05-09T04:10:12.795Z,10.05
2023-05-09T04:12:39.362Z,10.04
2023-05-09T04:15:06.743Z,10.10
2023-05-09T04:17:33.256Z,10.13
2023-05-09T04:19:59.756Z,10.15
2023-05-09T04:22:26.342Z,10.20
2023-05-09T04:24:52.950Z,10.25
2023-05-09T04:27:19.647Z,10.33
2023-05-09T04:29:46.202Z,10.44
2023-05-09T04:32:12.684Z,10.49
2023-05-09T04:34:39.351Z,10.48
2023-05-09T04:37:05.799Z,10.52
2023-05-09T04:39:32.373Z,10.62
2023-05-09T04:41:59.031Z,10.67
2023-05-09T04:44:25.669Z,10.66
2023-05-09T04:46:52.167Z,10.58
2023-05-09T04:49:18.707Z,10.69
2023-05-09T04:51:45.246Z,10.86
2023-05-09T04:54:11.749Z,10.90
2023-05-09T04:56:38.252Z,11.10
2023-05-09T04:59:04.709Z,10.98
2023-05-09T05:01:31.203Z,11.09
2023-05-09T05:03:57.752Z,11.01
2023-05-09T05:06:24.228Z,11.12
2023-05-09T05:08:50.671Z,11.05
2023-05-09T05:11:18.073Z,11.22
2023-05-09T05:13:44.811Z,11.24
2023-05-09T05:16:11.427Z,11.22
2023-05-09T05:18:37.962Z,11.28
2023-05-09T05:21:04.467Z,11.10
2023-05-09T05:23:30.926Z,11.22
2023-05-09T05:25:57.427Z,11.35
2023-05-09T05:28:23.905Z,11.59
2023-05-09T05:30:50.447Z,11.73
2023-05-09T05:33:16.953Z,11.55
2023-05-09T05:35:43.403Z,11.60
2023-05-09T05:38:09.865Z,11.68
2023-05-09T05:40:36.588Z,11.82
2023-05-09T05:43:03.049Z,11.92
2023-05-09T05:45:30.909Z,11.99
2023-05-09T05:47:58.040Z,11.73
2023-05-09T05:50:24.537Z,12.18
2023-05-09T05:52:51.059Z,12.00
2023-05-09T05:55:17.815Z,12.07
2023-05-09T05:57:44.462Z,12.11
2023-05-09T06:00:11.818Z,12.12
2023-05-09T06:02:38.489Z,11.92
2023-05-09T06:05:07.048Z,12.17
2023-05-09T06:07:33.528Z,12.01
2023-05-09T06:10:00.107Z,12.13
2023-05-09T06:12:27.985Z,12.10
2023-05-09T06:14:54.603Z,12.10
2023-05-09T06:17:21.144Z,12.20
2023-05-09T06:19:47.812Z,12.09
2023-05-09T06:22:14.303Z,12.21
2023-05-09T06:24:41.207Z,12.22
2023-05-09T06:27:07.688Z,12.25
2023-05-09T06:29:34.180Z,12.09
2023-05-09T06:32:00.813Z,12.32
2023-05-09T06:34:27.311Z,12.18
2023-05-09T06:36:53.777Z,12.26
2023-05-09T06:39:20.387Z,12.14
2023-05-09T06:41:46.847Z,12.20
2023-05-09T06:44:13.579Z,12.22
2023-05-09T06:46:40.264Z,12.50
2023-05-09T06:49:06.785Z,12.62
2023-05-09T06:51:33.441Z,12.65
2023-05-09T06:54:00.008Z,12.71
2023-05-09T06:56:26.943Z,12.54
2023-05-09T06:58:53.538Z,12.52
2023-05-09T07:01:20.137Z,12.58
2023-05-09T07:03:47.492Z,12.69
2023-05-09T07:06:13.970Z,12.69
2023-05-09T07:08:40.466Z,12.84
2023-05-09T07:11:06.912Z,12.71
2023-05-09T07:13:33.351Z,12.76
2023-05-09T07:15:59.891Z,12.52
2023-05-09T07:18:26.464Z,12.64
2023-05-09T07:20:52.957Z,13.13
2023-05-09T07:23:19.494Z,12.71
2023-05-09T07:25:45.953Z,12.74
2023-05-09T07:28:12.725Z,12.92
2023-05-09T07:30:39.742Z,13.03
2023-05-09T07:33:06.754Z,12.87
2023-05-09T07:35:33.422Z,13.30
2023-05-09T07:37:59.951Z,13.14
2023-05-09T07:40:26.547Z,13.10
2023-05-09T07:42:55.012Z,13.33
2023-05-09T07:45:23.729Z,13.25
2023-05-09T07:47:50.631Z,13.30
2023-05-09T07:50:17.387Z,13.22
2023-05-09T07:52:43.945Z,13.26
2023-05-09T07:55:12.246Z,13.49
2023-05-09T07:57:39.803Z,13.76
2023-05-09T08:00:08.915Z,13.64
2023-05-09T08:02:35.678Z,13.63
2023-05-09T08:05:02.242Z,13.86
2023-05-09T08:07:28.764Z,13.96
2023-05-09T08:09:55.234Z,13.43
2023-05-09T08:12:21.708Z,13.67
2023-05-09T08:14:48.578Z,13.63
2023-05-09T08:17:15.098Z,13.94
2023-05-09T08:19:41.567Z,14.05
2023-05-09T08:22:08.078Z,14.06
2023-05-09T08:24:34.590Z,14.34
2023-05-09T08:27:01.385Z,14.23
2023-05-09T08:29:29.005Z,14.28
2023-05-09T08:31:55.673Z,14.21
2023-05-09T08:34:22.225Z,14.39
2023-05-09T08:36:49.006Z,14.21
2023-05-09T08:39:15.511Z,14.46
2023-05-09T08:41:42.259Z,14.64
2023-05-09T08:44:09.237Z,14.68
2023-05-09T08:46:37.146Z,14.54
2023-05-09T08:49:05.545Z,14.92
2023-05-09T08:51:32.251Z,14.72
2023-05-09T08:53:58.925Z,14.79
2023-05-09T08:56:26.113Z,14.99
2023-05-09T08:58:53.719Z,14.99
2023-05-09T09:01:20.221Z,14.94
2023-05-09T09:03:49.425Z,15.14
2023-05-09T09:06:16.722Z,15.14
2023-05-09T09:08:43.868Z,15.20
2023-05-09T09:11:13.398Z,14.80
2023-05-09T09:13:41.009Z,14.91
2023-05-09T09:16:11.288Z,14.65
2023-05-09T09:18:39.616Z,14.61
2023-05-09T09:21:07.451Z,15.37
2023-05-09T09:23:33.900Z,15.50
2023-05-09T09:26:01.727Z,15.49
2023-05-09T09:28:31.110Z,15.32
2023-05-09T09:30:57.619Z,15.52
2023-05-09T09:33:25.399Z,15.27
2023-05-09T09:35:52.828Z,15.51
2023-05-09T09:38:20.037Z,15.64
2023-05-09T09:40:56.195Z,15.68
2023-05-09T09:43:29.548Z,15.60
2023-05-09T09:45:57.085Z,15.87
2023-05-09T09:48:27.258Z,15.75
2023-05-09T09:50:55.912Z,15.88
2023-05-09T09:53:23.381Z,15.75
2023-05-09T09:55:50.778Z,15.57
2023-05-09T09:58:18.203Z,16.03
2023-05-09T10:00:46.242Z,16.45
2023-05-09T10:03:18.536Z,16.59
2023-05-09T10:05:45.064Z,16.23
2023-05-09T10:08:11.909Z,16.10
2023-05-09T10:10:38.412Z,16.05
2023-05-09T10:13:11.887Z,16.15
2023-05-09T10:15:52.411Z,16.25
2023-05-09T10:18:21.457Z,16.48
2023-05-09T10:20:48.053Z,16.59
2023-05-09T10:23:14.507Z,16.83
2023-05-09T10:25:55.931Z,16.48
2023-05-09T10:28:23.214Z,16.99
2023-05-09T10:31:11.625Z,16.90
2023-05-09T10:33:44.104Z,17.13
2023-05-09T10:36:10.503Z,16.95
2023-05-09T10:38:37.154Z,16.86
2023-05-09T10:41:03.657Z,16.97
2023-05-09T10:43:32.207Z,16.77
2023-05-09T10:45:59.168Z,17.20
2023-05-09T10:48:25.692Z,17.26
2023-05-09T10:50:52.563Z,17.14
2023-05-09T10:53:19.185Z,17.14
2023-05-09T10:55:59.106Z,17.14
2023-05-09T10:58:37.452Z,17.24
2023-05-09T11:01:04.617Z,17.43
2023-05-09T11:03:53.747Z,17.83
2023-05-09T11:06:46.030Z,17.72
2023-05-09T11:09:34.464Z,17.49
2023-05-09T11:12:13.741Z,17.86
2023-05-09T11:14:47.455Z,17.98
2023-05-09T11:17:14.700Z,17.80
2023-05-09T11:19:46.952Z,17.95
2023-05-09T11:22:14.405Z,18.25
2023-05-09T11:24:45.848Z,18.42
2023-05-09T11:27:22.805Z,18.36
2023-05-09T11:29:52.430Z,18.46
2023-05-09T11:32:19.384Z,18.70
2023-05-09T11:34:45.919Z,18.74
2023-05-09T11:37:13.757Z,18.84
2023-05-09T11:39:58.579Z,18.90
2023-05-09T11:42:27.262Z,18.67
2023-05-09T11:44:53.859Z,18.99
2023-05-09T11:47:21.875Z,18.95
2023-05-09T11:49:51.772Z,19.26
2023-05-09T11:52:22.454Z,19.21
2023-05-09T11:54:49.630Z,19.42
2023-05-09T11:57:17.881Z,19.34
2023-05-09T11:59:47.618Z,19.50
2023-05-09T12:02:14.171Z,19.51
2023-05-09T12:04:40.798Z,19.74
2023-05-09T12:07:07.427Z,19.69
2023-05-09T12:09:34.669Z,20.17
2023-05-09T12:12:01.362Z,19.76
2023-05-09T12:14:33.931Z,19.66
2023-05-09T12:17:00.584Z,20.48
2023-05-09T12:19:27.271Z,19.78
2023-05-09T12:22:02.446Z,20.19
2023-05-09T12:24:29.468Z,20.35
2023-05-09T12:26:56.635Z,20.23
2023-05-09T12:29:23.751Z,20.27
2023-05-09T12:31:50.346Z,20.42
2023-05-09T12:34:17.070Z,20.75
2023-05-09T12:36:50.651Z,20.35
2023-05-09T12:39:22.351Z,20.98
2023-05-09T12:42:00.493Z,20.95
2023-05-09T12:44:29.722Z,20.83
2023-05-09T12:46:56.973Z,21.90
2023-05-09T12:49:23.522Z,21.65
2023-05-09T12:51:50.536Z,21.65
2023-05-09T12:54:23.854Z,21.84
2023-05-09T12:56:55.452Z,22.11
2023-05-09T12:59:26.679Z,22.12
2023-05-09T13:01:57.415Z,21.72
2023-05-09T13:04:24.872Z,22.11
2023-05-09T13:06:55.680Z,21.58
2023-05-09T13:09:22.920Z,22.55
2023-05-09T13:11:50.808Z,22.69
2023-05-09T13:14:20.442Z,21.92
2023-05-09T13:16:47.056Z,21.57
2023-05-09T13:19:13.601Z,22.69
2023-05-09T13:21:40.065Z,22.00
2023-05-09T13:24:06.914Z,22.11
2023-05-09T13:26:33.922Z,22.00
2023-05-09T13:29:00.411Z,21.89
2023-05-09T13:31:27.033Z,22.16
2023-05-09T13:33:53.566Z,22.85
2023-05-09T13:36:20.131Z,22.19
2023-05-09T13:38:46.792Z,22.69
2023-05-09T13:41:20.400Z,22.37
2023-05-09T13:43:47.049Z,22.48
2023-05-09T13:46:13.792Z,22.56
2023-05-09T13:48:40.334Z,22.33
2023-05-09T13:51:07.829Z,22.18
2023-05-09T13:53:35.052Z,22.61
2023-05-09T13:56:02.778Z,22.02
2023-05-09T13:58:29.838Z,22.23
2023-05-09T14:00:56.294Z,22.10
2023-05-09T14:03:22.774Z,22.82
2023-05-09T14:05:49.477Z,22.84
2023-05-09T14:08:16.829Z,22.89
2023-05-09T14:10:44.489Z,22.13
2023-05-09T14:13:12.474Z,22.39
2023-05-09T14:15:40.151Z,23.05
2023-05-09T14:18:06.764Z,22.62
2023-05-09T14:20:36.183Z,23.16
2023-05-09T14:23:02.995Z,23.06
2023-05-09T14:25:29.532Z,22.58
2023-05-09T14:27:56.102Z,22.66
2023-05-09T14:30:22.961Z,23.80
2023-05-09T14:32:49.464Z,22.85
2023-05-09T14:35:16.194Z,22.96
2023-05-09T14:37:42.781Z,22.86
2023-05-09T14:40:09.720Z,22.75
2023-05-09T14:42:36.940Z,22.52
2023-05-09T14:45:04.500Z,22.94
2023-05-09T14:47:31.090Z,22.96
2023-05-09T14:49:57.700Z,23.33
2023-05-09T14:52:24.201Z,22.69
2023-05-09T14:54:50.756Z,22.71
2023-05-09T14:57:17.391Z,22.42
2023-05-09T14:59:43.877Z,23.27
2023-05-09T15:02:10.352Z,22.64
2023-05-09T15:04:37.241Z,22.71
2023-05-09T15:07:04.797Z,23.12
2023-05-09T15:09:31.706Z,23.87
2023-05-09T15:11:58.356Z,22.34
2023-05-09T15:14:24.831Z,21.99
2023-05-09T15:16:55.117Z,22.01
2023-05-09T15:19:22.463Z,21.97
2023-05-09T15:21:49.025Z,21.54
2023-05-09T15:24:15.839Z,21.23
2023-05-09T15:26:42.354Z,21.21
2023-05-09T15:29:08.828Z,21.24
2023-05-09T15:31:35.445Z,20.77
2023-05-09T15:34:02.259Z,20.86
2023-05-09T15:36:29.907Z,20.98
2023-05-09T15:38:56.385Z,21.38
2023-05-09T15:41:23.140Z,20.84
2023-05-09T15:43:49.791Z,21.09
2023-05-09T15:46:16.839Z,21.38
2023-05-09T15:48:43.497Z,21.68
2023-05-09T15:51:11.362Z,21.55
2023-05-09T15:53:37.825Z,21.32
2023-05-09T15:56:04.454Z,21.67
2023-05-09T15:58:30.980Z,21.04
2023-05-09T16:00:57.434Z,21.16
2023-05-09T16:03:25.110Z,20.94
2023-05-09T16:05:52.050Z,20.65
2023-05-09T16:08:18.589Z,21.11
2023-05-09T16:10:48.915Z,20.78
2023-05-09T16:13:17.720Z,20.32
2023-05-09T16:15:45.307Z,20.48
2023-05-09T16:18:12.151Z,20.57
2023-05-09T16:20:38.686Z,20.21
2023-05-09T16:23:05.146Z,20.20
2023-05-09T16:25:33.919Z,19.95
2023-05-09T16:28:01.715Z,20.27
2023-05-09T16:30:28.253Z,20.13
2023-05-09T16:32:54.891Z,20.39
2023-05-09T16:35:21.861Z,20.23
2023-05-09T16:37:48.311Z,20.18
2023-05-09T16:40:15.070Z,20.12
2023-05-09T16:42:42.912Z,20.31
2023-05-09T16:45:09.889Z,20.54
2023-05-09T16:47:36.462Z,20.17
2023-05-09T16:50:02.951Z,20.43
2023-05-09T16:52:30.464Z,20.01
2023-05-09T16:54:59.175Z,19.74
2023-05-09T16:57:25.690Z,20.02
2023-05-09T16:59:53.389Z,19.74
2023-05-09T17:02:20.022Z,20.03
2023-05-09T17:04:46.638Z,19.47
2023-05-09T17:07:14.393Z,19.32
2023-05-09T17:09:41.352Z,19.29
2023-05-09T17:12:08.064Z,18.92
2023-05-09T17:14:34.526Z,18.85
2023-05-09T17:17:01.534Z,18.74
2023-05-09T17:19:28.100Z,18.75
2023-05-09T17:21:55.994Z,18.49
2023-05-09T17:24:22.552Z,18.30
2023-05-09T17:26:50.173Z,18.28
2023-05-09T17:29:16.667Z,18.20
2023-05-09T17:31:43.200Z,17.67
2023-05-09T17:34:09.748Z,17.97
2023-05-09T17:36:36.231Z,17.71
2023-05-09T17:39:03.029Z,17.86
2023-05-09T17:41:29.642Z,17.63
2023-05-09T17:43:57.379Z,17.55
2023-05-09T17:46:24.248Z,17.47
2023-05-09T17:48:50.852Z,17.40
2023-05-09T17:51:17.561Z,17.08
2023-05-09T17:53:44.278Z,16.78
2023-05-09T17:56:10.800Z,16.99
2023-05-09T17:58:37.272Z,16.99
2023-05-09T18:01:03.858Z,16.65
2023-05-09T18:03:32.202Z,16.38
2023-05-09T18:06:00.318Z,16.22
2023-05-09T18:08:26.936Z,16.16
2023-05-09T18:10:56.283Z,15.69
2023-05-09T18:13:23.106Z,15.45
2023-05-09T18:15:49.803Z,15.19
2023-05-09T18:18:16.317Z,15.27
2023-05-09T18:20:42.971Z,15.34
2023-05-09T18:23:09.827Z,15.04
2023-05-09T18:25:36.550Z,14.83
2023-05-09T18:28:03.442Z,14.85
2023-05-09T18:30:30.062Z,14.34
2023-05-09T18:33:00.147Z,14.53
2023-05-09T18:35:26.913Z,14.40
2023-05-09T18:37:53.436Z,14.24
2023-05-09T18:40:20.036Z,13.86
2023-05-09T18:42:46.546Z,13.86
2023-05-09T18:45:13.304Z,13.70
2023-05-09T18:47:39.848Z,13.32
2023-05-09T18:50:07.257Z,13.58
2023-05-09T18:52:34.390Z,13.24
2023-05-09T18:55:00.855Z,13.21
2023-05-09T18:57:28.210Z,13.06
2023-05-09T18:59:55.077Z,13.27
2023-05-09T19:02:22.344Z,13.05
2023-05-09T19:04:50.399Z,13.00
2023-05-09T19:07:17.083Z,12.98
2023-05-09T19:09:43.796Z,12.78
2023-05-09T19:12:10.323Z,12.80
2023-05-09T19:14:37.940Z,12.48
2023-05-09T19:17:07.767Z,12.27
2023-05-09T19:19:34.594Z,12.48
2023-05-09T19:22:01.666Z,12.24
2023-05-09T19:24:28.348Z,12.44
2023-05-09T19:26:54.940Z,12.24
2023-05-09T19:29:21.491Z,11.94
2023-05-09T19:31:48.042Z,11.91
2023-05-09T19:34:14.557Z,11.90
2023-05-09T19:36:41.050Z,11.85
2023-05-09T19:39:08.860Z,12.05
2023-05-09T19:41:35.966Z,11.68
2023-05-09T19:44:02.808Z,11.59
2023-05-09T19:46:29.339Z,11.74
2023-05-09T19:48:56.051Z,11.60
2023-05-09T19:51:22.865Z,11.77
2023-05-09T19:53:49.621Z,11.65
2023-05-09T19:56:16.349Z,11.59
2023-05-09T19:58:43.421Z,11.45
2023-05-09T20:01:10.097Z,11.36
2023-05-09T20:03:37.121Z,11.26
2023-05-09T20:06:03.845Z,11.48
2023-05-09T20:08:31.118Z,11.84
2023-05-09T20:10:57.708Z,11.77
2023-05-09T20:13:24.448Z,11.69
2023-05-09T20:15:51.012Z,11.48
2023-05-09T20:18:17.576Z,11.48
2023-05-09T20:20:44.108Z,11.56
2023-05-09T20:23:10.711Z,11.28
2023-05-09T20:25:37.207Z,11.33
2023-05-09T20:28:03.681Z,11.21
2023-05-09T20:30:30.227Z,11.26
2023-05-09T20:32:58.479Z,11.28
2023-05-09T20:35:25.177Z,11.20
2023-05-09T20:37:51.633Z,11.30
2023-05-09T20:40:18.274Z,11.03
2023-05-09T20:42:44.963Z,11.53
2023-05-09T20:45:11.563Z,11.59
2023-05-09T20:47:39.292Z,11.37
2023-05-09T20:50:06.764Z,11.35
2023-05-09T20:52:33.220Z,11.33
2023-05-09T20:54:59.678Z,11.41
2023-05-09T20:57:26.235Z,11.28
2023-05-09T20:59:52.702Z,11.26
2023-05-09T21:02:19.202Z,11.48
2023-05-09T21:04:45.719Z,12.08
2023-05-09T21:07:12.389Z,12.06
2023-05-09T21:09:38.936Z,12.22
2023-05-09T21:12:05.619Z,12.87
2023-05-09T21:14:32.183Z,12.55
2023-05-09T21:16:58.756Z,12.48
2023-05-09T21:19:25.309Z,12.74
2023-05-09T21:21:51.744Z,12.89
2023-05-09T21:24:18.197Z,12.90
2023-05-09T21:26:44.707Z,12.84
2023-05-09T21:29:11.163Z,12.93
2023-05-09T21:31:37.733Z,13.03
2023-05-09T21:34:09.823Z,13.04
2023-05-09T21:36:38.325Z,12.56
2023-05-09T21:39:09.368Z,12.85
2023-05-09T21:41:39.331Z,12.81
2023-05-09T21:44:07.371Z,12.72
2023-05-09T21:46:34.789Z,12.46
2023-05-09T21:49:01.518Z,12.13
2023-05-09T21:51:28.528Z,12.17
2023-05-09T21:53:55.184Z,12.21
2023-05-09T21:56:22.266Z,12.31
2023-05-09T21:58:48.710Z,12.20
2023-05-09T22:01:15.916Z,12.13
2023-05-09T22:03:43.034Z,12.28
2023-05-09T22:06:09.582Z,12.28
2023-05-09T22:08:36.077Z,12.42
2023-05-09T22:11:02.764Z,12.33
2023-05-09T22:13:29.274Z,12.18
2023-05-09T22:15:55.848Z,12.16
2023-05-09T22:18:22.385Z,12.13
2023-05-09T22:20:48.879Z,12.10
2023-05-09T22:23:15.401Z,12.07
2023-05-09T22:25:41.877Z,11.94
2023-05-09T22:28:09.033Z,12.01
2023-05-09T22:30:36.051Z,12.03
2023-05-09T22:33:02.696Z,11.80
2023-05-09T22:35:29.369Z,11.90
2023-05-09T22:37:55.947Z,11.94
2023-05-09T22:40:22.410Z,11.90
2023-05-09T22:42:48.957Z,12.02
2023-05-09T22:45:15.816Z,11.81
2023-05-09T22:47:42.313Z,11.79
2023-05-09T22:50:09.955Z,11.78
2023-05-09T22:52:36.527Z,11.68
2023-05-09T22:55:03.395Z,11.73
2023-05-09T22:57:30.147Z,11.81
2023-05-09T22:59:56.776Z,11.59
2023-05-09T23:02:23.402Z,11.81
2023-05-09T23:04:49.921Z,11.81
2023-05-09T23:07:16.543Z,11.70
2023-05-09T23:09:43.098Z,11.71
2023-05-09T23:12:10.484Z,11.71
2023-05-09T23:14:37.135Z,11.78
2023-05-09T23:17:03.607Z,11.99
2023-05-09T23:19:30.128Z,12.03
2023-05-09T23:21:58.907Z,12.10
2023-05-09T23:24:25.524Z,12.10
2023-05-09T23:26:53.193Z,12.08
2023-05-09T23:29:19.774Z,12.04
2023-05-09T23:31:46.345Z,12.18
2023-05-09T23:34:12.975Z,12.31
2023-05-09T23:36:39.481Z,12.46
2023-05-09T23:39:06.369Z,12.61
2023-05-09T23:41:33.103Z,12.73
2023-05-09T23:43:59.698Z,12.81
2023-05-09T23:46:26.257Z,12.82
2023-05-09T23:48:52.753Z,12.78
2023-05-09T23:51:20.864Z,12.73
2023-05-09T23:53:47.495Z,12.65
2023-05-09T23:56:13.988Z,12.69
2023-05-09T23:58:40.629Z,12.55
